sensor_id;sensor_type;location;lat;lon;timestamp;P1;durP1;ratioP1;P2;durP2;ratioP2
78222;SDS011;67497;53.058;21.618;2023-04-05T00:01:50;12.68;;;7.38;;
78222;SDS011;67497;53.058;21.618;2023-04-05T00:03:52;12.38;;;7.80;;
78222;SDS011;67497;53.058;21.618;2023-04-05T00:05:54;14.35;;;7.25;;
78222;SDS011;67497;53.058;21.618;2023-04-05T00:07:57;12.13;;;6.68;;
78222;SDS011;67497;53.058;21.618;2023-04-05T00:09:59;16.80;;;7.80;;
78222;SDS011;67497;53.058;21.618;2023-04-05T00:12:00;13.60;;;6.68;;
78222;SDS011;67497;53.058;21.618;2023-04-05T00:14:01;16.75;;;8.02;;
78222;SDS011;67497;53.058;21.618;2023-04-05T00:16:02;14.95;;;7.22;;
78222;SDS011;67497;53.058;21.618;2023-04-05T00:18:03;13.52;;;7.20;;
78222;SDS011;67497;53.058;21.618;2023-04-05T00:20:04;15.90;;;8.38;;
78222;SDS011;67497;53.058;21.618;2023-04-05T00:22:06;15.13;;;8.65;;
78222;SDS011;67497;53.058;21.618;2023-04-05T00:24:09;13.23;;;7.13;;
78222;SDS011;67497;53.058;21.618;2023-04-05T00:26:14;13.60;;;7.20;;
78222;SDS011;67497;53.058;21.618;2023-04-05T00:28:14;13.13;;;7.57;;
78222;SDS011;67497;53.058;21.618;2023-04-05T00:30:15;12.38;;;8.38;;
78222;SDS011;67497;53.058;21.618;2023-04-05T00:32:20;11.55;;;7.05;;
78222;SDS011;67497;53.058;21.618;2023-04-05T00:34:20;12.68;;;7.22;;
78222;SDS011;67497;53.058;21.618;2023-04-05T00:36:21;15.82;;;8.07;;
78222;SDS011;67497;53.058;21.618;2023-04-05T00:38:22;14.45;;;7.60;;
78222;SDS011;67497;53.058;21.618;2023-04-05T00:40:22;18.83;;;8.93;;
78222;SDS011;67497;53.058;21.618;2023-04-05T00:42:23;14.23;;;8.20;;
78222;SDS011;67497;53.058;21.618;2023-04-05T00:44:24;20.30;;;8.38;;
78222;SDS011;67497;53.058;21.618;2023-04-05T00:46:25;17.10;;;8.43;;
78222;SDS011;67497;53.058;21.618;2023-04-05T00:48:27;17.45;;;8.13;;
78222;SDS011;67497;53.058;21.618;2023-04-05T00:50:28;15.20;;;8.13;;
78222;SDS011;67497;53.058;21.618;2023-04-05T00:52:29;14.43;;;8.40;;
78222;SDS011;67497;53.058;21.618;2023-04-05T00:54:31;16.23;;;8.55;;
78222;SDS011;67497;53.058;21.618;2023-04-05T00:56:32;17.38;;;9.25;;
78222;SDS011;67497;53.058;21.618;2023-04-05T00:58:33;17.35;;;8.55;;
78222;SDS011;67497;53.058;21.618;2023-04-05T01:00:35;20.95;;;9.82;;
78222;SDS011;67497;53.058;21.618;2023-04-05T01:02:47;16.60;;;7.80;;
78222;SDS011;67497;53.058;21.618;2023-04-05T01:04:54;19.42;;;9.38;;
78222;SDS011;67497;53.058;21.618;2023-04-05T01:09:13;15.30;;;8.13;;
78222;SDS011;67497;53.058;21.618;2023-04-05T01:11:23;19.20;;;10.18;;
78222;SDS011;67497;53.058;21.618;2023-04-05T01:13:25;19.25;;;9.43;;
78222;SDS011;67497;53.058;21.618;2023-04-05T01:15:28;18.02;;;8.75;;
78222;SDS011;67497;53.058;21.618;2023-04-05T01:17:29;19.00;;;9.75;;
78222;SDS011;67497;53.058;21.618;2023-04-05T01:19:35;19.90;;;9.88;;
78222;SDS011;67497;53.058;21.618;2023-04-05T01:22:04;19.83;;;10.27;;
78222;SDS011;67497;53.058;21.618;2023-04-05T01:27:10;20.25;;;10.10;;
78222;SDS011;67497;53.058;21.618;2023-04-05T01:31:26;17.75;;;9.93;;
78222;SDS011;67497;53.058;21.618;2023-04-05T01:33:34;20.17;;;9.45;;
78222;SDS011;67497;53.058;21.618;2023-04-05T01:35:54;21.55;;;10.45;;
78222;SDS011;67497;53.058;21.618;2023-04-05T01:38:02;23.33;;;11.57;;
78222;SDS011;67497;53.058;21.618;2023-04-05T01:40:04;21.98;;;10.50;;
78222;SDS011;67497;53.058;21.618;2023-04-05T01:42:05;20.17;;;10.15;;
78222;SDS011;67497;53.058;21.618;2023-04-05T01:44:06;22.58;;;10.82;;
78222;SDS011;67497;53.058;21.618;2023-04-05T01:46:06;19.13;;;9.40;;
78222;SDS011;67497;53.058;21.618;2023-04-05T01:48:07;21.80;;;10.15;;
78222;SDS011;67497;53.058;21.618;2023-04-05T01:50:07;16.75;;;9.82;;
78222;SDS011;67497;53.058;21.618;2023-04-05T01:52:08;17.92;;;8.95;;
78222;SDS011;67497;53.058;21.618;2023-04-05T01:54:09;18.15;;;9.38;;
78222;SDS011;67497;53.058;21.618;2023-04-05T01:56:09;21.73;;;9.75;;
78222;SDS011;67497;53.058;21.618;2023-04-05T01:58:10;17.27;;;9.25;;
78222;SDS011;67497;53.058;21.618;2023-04-05T02:00:10;22.98;;;11.77;;
78222;SDS011;67497;53.058;21.618;2023-04-05T02:02:12;22.05;;;10.90;;
78222;SDS011;67497;53.058;21.618;2023-04-05T02:04:12;22.92;;;10.68;;
78222;SDS011;67497;53.058;21.618;2023-04-05T02:06:13;22.20;;;10.38;;
78222;SDS011;67497;53.058;21.618;2023-04-05T02:08:13;21.75;;;10.40;;
78222;SDS011;67497;53.058;21.618;2023-04-05T02:10:16;19.60;;;10.10;;
78222;SDS011;67497;53.058;21.618;2023-04-05T02:12:17;19.73;;;9.32;;
78222;SDS011;67497;53.058;21.618;2023-04-05T02:14:18;21.85;;;10.30;;
78222;SDS011;67497;53.058;21.618;2023-04-05T02:16:18;20.38;;;10.07;;
78222;SDS011;67497;53.058;21.618;2023-04-05T02:18:19;20.95;;;11.10;;
78222;SDS011;67497;53.058;21.618;2023-04-05T02:20:29;17.00;;;9.73;;
78222;SDS011;67497;53.058;21.618;2023-04-05T02:22:29;22.52;;;9.65;;
78222;SDS011;67497;53.058;21.618;2023-04-05T02:24:30;20.02;;;10.23;;
78222;SDS011;67497;53.058;21.618;2023-04-05T02:26:30;19.35;;;10.82;;
78222;SDS011;67497;53.058;21.618;2023-04-05T02:28:31;21.80;;;11.90;;
78222;SDS011;67497;53.058;21.618;2023-04-05T02:30:31;18.85;;;9.80;;
78222;SDS011;67497;53.058;21.618;2023-04-05T02:32:32;18.50;;;9.75;;
78222;SDS011;67497;53.058;21.618;2023-04-05T02:34:32;23.52;;;10.27;;
78222;SDS011;67497;53.058;21.618;2023-04-05T02:36:33;21.80;;;10.85;;
78222;SDS011;67497;53.058;21.618;2023-04-05T02:38:34;20.27;;;10.02;;
78222;SDS011;67497;53.058;21.618;2023-04-05T02:40:35;18.00;;;8.55;;
78222;SDS011;67497;53.058;21.618;2023-04-05T02:42:35;17.88;;;9.50;;
78222;SDS011;67497;53.058;21.618;2023-04-05T02:44:36;21.13;;;9.20;;
78222;SDS011;67497;53.058;21.618;2023-04-05T02:46:36;17.85;;;9.43;;
78222;SDS011;67497;53.058;21.618;2023-04-05T02:48:37;24.88;;;10.18;;
78222;SDS011;67497;53.058;21.618;2023-04-05T02:50:37;20.08;;;10.45;;
78222;SDS011;67497;53.058;21.618;2023-04-05T02:52:38;20.63;;;9.20;;
78222;SDS011;67497;53.058;21.618;2023-04-05T02:54:39;18.25;;;10.32;;
78222;SDS011;67497;53.058;21.618;2023-04-05T02:56:40;15.05;;;9.10;;
78222;SDS011;67497;53.058;21.618;2023-04-05T02:58:40;19.27;;;9.73;;
78222;SDS011;67497;53.058;21.618;2023-04-05T03:00:41;14.48;;;8.98;;
78222;SDS011;67497;53.058;21.618;2023-04-05T03:02:45;21.27;;;10.02;;
78222;SDS011;67497;53.058;21.618;2023-04-05T03:04:46;17.40;;;9.40;;
78222;SDS011;67497;53.058;21.618;2023-04-05T03:06:46;19.65;;;10.30;;
78222;SDS011;67497;53.058;21.618;2023-04-05T03:08:50;18.45;;;9.15;;
78222;SDS011;67497;53.058;21.618;2023-04-05T03:10:50;19.25;;;9.80;;
78222;SDS011;67497;53.058;21.618;2023-04-05T03:12:51;19.73;;;11.02;;
78222;SDS011;67497;53.058;21.618;2023-04-05T03:14:51;16.52;;;9.10;;
78222;SDS011;67497;53.058;21.618;2023-04-05T03:16:52;19.45;;;9.93;;
78222;SDS011;67497;53.058;21.618;2023-04-05T03:18:52;16.60;;;9.48;;
78222;SDS011;67497;53.058;21.618;2023-04-05T03:20:53;21.25;;;9.50;;
78222;SDS011;67497;53.058;21.618;2023-04-05T03:22:55;17.15;;;8.10;;
78222;SDS011;67497;53.058;21.618;2023-04-05T03:24:56;14.88;;;8.25;;
78222;SDS011;67497;53.058;21.618;2023-04-05T03:27:00;18.63;;;8.57;;
78222;SDS011;67497;53.058;21.618;2023-04-05T03:29:02;18.23;;;10.07;;
78222;SDS011;67497;53.058;21.618;2023-04-05T03:31:02;20.45;;;10.05;;
78222;SDS011;67497;53.058;21.618;2023-04-05T03:33:03;16.42;;;8.75;;
78222;SDS011;67497;53.058;21.618;2023-04-05T03:35:03;18.80;;;9.63;;
78222;SDS011;67497;53.058;21.618;2023-04-05T03:37:05;16.70;;;8.77;;
78222;SDS011;67497;53.058;21.618;2023-04-05T03:39:05;17.35;;;8.57;;
78222;SDS011;67497;53.058;21.618;2023-04-05T03:41:06;17.60;;;9.38;;
78222;SDS011;67497;53.058;21.618;2023-04-05T03:43:06;17.10;;;9.07;;
78222;SDS011;67497;53.058;21.618;2023-04-05T03:45:07;14.20;;;8.07;;
78222;SDS011;67497;53.058;21.618;2023-04-05T03:47:08;18.75;;;9.90;;
78222;SDS011;67497;53.058;21.618;2023-04-05T03:49:08;16.88;;;8.73;;
78222;SDS011;67497;53.058;21.618;2023-04-05T03:51:09;15.13;;;8.02;;
78222;SDS011;67497;53.058;21.618;2023-04-05T03:53:09;20.17;;;9.32;;
78222;SDS011;67497;53.058;21.618;2023-04-05T03:55:10;17.30;;;8.38;;
78222;SDS011;67497;53.058;21.618;2023-04-05T03:57:12;21.38;;;10.80;;
78222;SDS011;67497;53.058;21.618;2023-04-05T03:59:13;16.50;;;8.38;;
78222;SDS011;67497;53.058;21.618;2023-04-05T04:01:13;20.20;;;10.38;;
78222;SDS011;67497;53.058;21.618;2023-04-05T04:03:14;14.45;;;7.97;;
78222;SDS011;67497;53.058;21.618;2023-04-05T04:05:15;15.13;;;8.23;;
78222;SDS011;67497;53.058;21.618;2023-04-05T04:07:16;16.40;;;9.50;;
78222;SDS011;67497;53.058;21.618;2023-04-05T04:09:16;16.85;;;9.55;;
78222;SDS011;67497;53.058;21.618;2023-04-05T04:11:17;14.27;;;8.30;;
78222;SDS011;67497;53.058;21.618;2023-04-05T04:13:17;15.77;;;8.57;;
78222;SDS011;67497;53.058;21.618;2023-04-05T04:15:18;17.33;;;8.57;;
78222;SDS011;67497;53.058;21.618;2023-04-05T04:17:28;17.23;;;9.00;;
78222;SDS011;67497;53.058;21.618;2023-04-05T04:19:31;16.20;;;9.05;;
78222;SDS011;67497;53.058;21.618;2023-04-05T04:21:31;15.65;;;8.88;;
78222;SDS011;67497;53.058;21.618;2023-04-05T04:23:33;15.07;;;8.23;;
78222;SDS011;67497;53.058;21.618;2023-04-05T04:25:33;17.20;;;8.95;;
78222;SDS011;67497;53.058;21.618;2023-04-05T04:27:36;16.50;;;8.30;;
78222;SDS011;67497;53.058;21.618;2023-04-05T04:29:38;17.42;;;9.60;;
78222;SDS011;67497;53.058;21.618;2023-04-05T04:31:45;15.93;;;8.43;;
78222;SDS011;67497;53.058;21.618;2023-04-05T04:33:49;12.88;;;8.00;;
78222;SDS011;67497;53.058;21.618;2023-04-05T04:35:49;15.77;;;9.85;;
78222;SDS011;67497;53.058;21.618;2023-04-05T04:39:57;16.45;;;9.05;;
78222;SDS011;67497;53.058;21.618;2023-04-05T04:42:03;17.92;;;9.68;;
78222;SDS011;67497;53.058;21.618;2023-04-05T04:44:03;14.48;;;8.48;;
78222;SDS011;67497;53.058;21.618;2023-04-05T04:46:05;18.08;;;9.07;;
78222;SDS011;67497;53.058;21.618;2023-04-05T04:48:09;14.88;;;8.27;;
78222;SDS011;67497;53.058;21.618;2023-04-05T04:50:13;12.32;;;7.75;;
78222;SDS011;67497;53.058;21.618;2023-04-05T04:52:15;16.25;;;8.73;;
78222;SDS011;67497;53.058;21.618;2023-04-05T04:54:15;18.33;;;9.18;;
78222;SDS011;67497;53.058;21.618;2023-04-05T04:56:19;13.85;;;8.18;;
78222;SDS011;67497;53.058;21.618;2023-04-05T04:58:20;17.55;;;9.48;;
78222;SDS011;67497;53.058;21.618;2023-04-05T05:00:21;16.25;;;8.27;;
78222;SDS011;67497;53.058;21.618;2023-04-05T05:02:23;18.80;;;8.38;;
78222;SDS011;67497;53.058;21.618;2023-04-05T05:04:24;15.93;;;8.73;;
78222;SDS011;67497;53.058;21.618;2023-04-05T05:06:25;15.48;;;9.18;;
78222;SDS011;67497;53.058;21.618;2023-04-05T05:08:26;17.90;;;8.85;;
78222;SDS011;67497;53.058;21.618;2023-04-05T05:10:26;15.57;;;8.50;;
78222;SDS011;67497;53.058;21.618;2023-04-05T05:12:27;17.10;;;8.60;;
78222;SDS011;67497;53.058;21.618;2023-04-05T05:14:28;19.48;;;9.93;;
78222;SDS011;67497;53.058;21.618;2023-04-05T05:16:29;16.77;;;8.63;;
78222;SDS011;67497;53.058;21.618;2023-04-05T05:18:30;16.27;;;9.65;;
78222;SDS011;67497;53.058;21.618;2023-04-05T05:20:30;15.65;;;8.77;;
78222;SDS011;67497;53.058;21.618;2023-04-05T05:22:31;16.90;;;8.75;;
78222;SDS011;67497;53.058;21.618;2023-04-05T05:24:31;16.60;;;9.23;;
78222;SDS011;67497;53.058;21.618;2023-04-05T05:26:32;13.73;;;8.35;;
78222;SDS011;67497;53.058;21.618;2023-04-05T05:28:33;17.10;;;9.55;;
78222;SDS011;67497;53.058;21.618;2023-04-05T05:30:33;14.43;;;8.60;;
78222;SDS011;67497;53.058;21.618;2023-04-05T05:32:34;16.88;;;8.52;;
78222;SDS011;67497;53.058;21.618;2023-04-05T05:34:34;17.77;;;9.07;;
78222;SDS011;67497;53.058;21.618;2023-04-05T05:36:35;16.35;;;8.52;;
78222;SDS011;67497;53.058;21.618;2023-04-05T05:38:36;17.20;;;9.40;;
78222;SDS011;67497;53.058;21.618;2023-04-05T05:40:36;16.50;;;8.85;;
78222;SDS011;67497;53.058;21.618;2023-04-05T05:42:37;20.17;;;9.93;;
78222;SDS011;67497;53.058;21.618;2023-04-05T05:44:38;15.13;;;8.52;;
78222;SDS011;67497;53.058;21.618;2023-04-05T05:46:39;16.63;;;9.90;;
78222;SDS011;67497;53.058;21.618;2023-04-05T05:48:39;19.17;;;10.80;;
78222;SDS011;67497;53.058;21.618;2023-04-05T05:50:40;17.98;;;10.60;;
78222;SDS011;67497;53.058;21.618;2023-04-05T05:52:41;19.35;;;11.07;;
78222;SDS011;67497;53.058;21.618;2023-04-05T05:54:41;20.30;;;10.38;;
78222;SDS011;67497;53.058;21.618;2023-04-05T05:56:42;21.80;;;10.60;;
78222;SDS011;67497;53.058;21.618;2023-04-05T05:58:42;21.13;;;11.13;;
78222;SDS011;67497;53.058;21.618;2023-04-05T06:00:43;21.02;;;11.68;;
78222;SDS011;67497;53.058;21.618;2023-04-05T06:02:46;21.42;;;11.25;;
78222;SDS011;67497;53.058;21.618;2023-04-05T06:04:47;20.55;;;10.38;;
78222;SDS011;67497;53.058;21.618;2023-04-05T06:06:48;21.17;;;12.43;;
78222;SDS011;67497;53.058;21.618;2023-04-05T06:08:49;20.02;;;10.98;;
78222;SDS011;67497;53.058;21.618;2023-04-05T06:10:51;21.58;;;11.88;;
78222;SDS011;67497;53.058;21.618;2023-04-05T06:12:51;24.35;;;11.15;;
78222;SDS011;67497;53.058;21.618;2023-04-05T06:14:52;22.60;;;12.05;;
78222;SDS011;67497;53.058;21.618;2023-04-05T06:16:52;21.23;;;11.60;;
78222;SDS011;67497;53.058;21.618;2023-04-05T06:18:53;20.75;;;10.93;;
78222;SDS011;67497;53.058;21.618;2023-04-05T06:22:55;27.02;;;11.80;;
78222;SDS011;67497;53.058;21.618;2023-04-05T06:24:56;23.40;;;12.98;;
78222;SDS011;67497;53.058;21.618;2023-04-05T06:26:57;23.17;;;13.50;;
78222;SDS011;67497;53.058;21.618;2023-04-05T06:28:58;26.67;;;12.63;;
78222;SDS011;67497;53.058;21.618;2023-04-05T06:30:58;22.95;;;12.57;;
78222;SDS011;67497;53.058;21.618;2023-04-05T06:32:59;27.58;;;13.32;;
78222;SDS011;67497;53.058;21.618;2023-04-05T06:35:00;21.83;;;11.82;;
78222;SDS011;67497;53.058;21.618;2023-04-05T06:37:02;24.05;;;13.07;;
78222;SDS011;67497;53.058;21.618;2023-04-05T06:39:03;26.02;;;13.82;;
78222;SDS011;67497;53.058;21.618;2023-04-05T06:41:04;21.35;;;11.27;;
78222;SDS011;67497;53.058;21.618;2023-04-05T06:43:04;25.83;;;14.20;;
78222;SDS011;67497;53.058;21.618;2023-04-05T06:45:05;25.10;;;12.20;;
78222;SDS011;67497;53.058;21.618;2023-04-05T06:47:06;25.20;;;13.45;;
78222;SDS011;67497;53.058;21.618;2023-04-05T06:49:07;21.30;;;12.05;;
78222;SDS011;67497;53.058;21.618;2023-04-05T06:51:07;22.70;;;12.52;;
78222;SDS011;67497;53.058;21.618;2023-04-05T06:53:08;23.55;;;11.57;;
78222;SDS011;67497;53.058;21.618;2023-04-05T06:55:09;22.85;;;11.82;;
78222;SDS011;67497;53.058;21.618;2023-04-05T06:57:09;22.17;;;11.70;;
78222;SDS011;67497;53.058;21.618;2023-04-05T06:59:10;26.38;;;13.18;;
78222;SDS011;67497;53.058;21.618;2023-04-05T07:01:10;25.35;;;13.85;;
78222;SDS011;67497;53.058;21.618;2023-04-05T07:03:11;23.88;;;13.05;;
78222;SDS011;67497;53.058;21.618;2023-04-05T07:05:11;23.83;;;12.63;;
78222;SDS011;67497;53.058;21.618;2023-04-05T07:07:12;23.73;;;12.43;;
78222;SDS011;67497;53.058;21.618;2023-04-05T07:09:12;28.27;;;14.27;;
78222;SDS011;67497;53.058;21.618;2023-04-05T07:11:13;22.13;;;12.05;;
78222;SDS011;67497;53.058;21.618;2023-04-05T07:13:14;22.63;;;12.02;;
78222;SDS011;67497;53.058;21.618;2023-04-05T07:15:16;22.83;;;12.48;;
78222;SDS011;67497;53.058;21.618;2023-04-05T07:17:16;30.85;;;13.98;;
78222;SDS011;67497;53.058;21.618;2023-04-05T07:19:17;27.15;;;12.23;;
78222;SDS011;67497;53.058;21.618;2023-04-05T07:21:17;26.00;;;12.60;;
78222;SDS011;67497;53.058;21.618;2023-04-05T07:23:18;28.55;;;12.07;;
78222;SDS011;67497;53.058;21.618;2023-04-05T07:25:18;30.30;;;12.38;;
78222;SDS011;67497;53.058;21.618;2023-04-05T07:27:19;39.80;;;12.68;;
78222;SDS011;67497;53.058;21.618;2023-04-05T07:29:19;25.20;;;11.43;;
78222;SDS011;67497;53.058;21.618;2023-04-05T07:31:20;25.00;;;11.93;;
78222;SDS011;67497;53.058;21.618;2023-04-05T07:33:20;20.38;;;10.73;;
78222;SDS011;67497;53.058;21.618;2023-04-05T07:35:21;27.55;;;12.10;;
78222;SDS011;67497;53.058;21.618;2023-04-05T07:37:21;22.58;;;11.07;;
78222;SDS011;67497;53.058;21.618;2023-04-05T07:39:22;24.10;;;11.27;;
78222;SDS011;67497;53.058;21.618;2023-04-05T07:41:26;30.77;;;11.90;;
78222;SDS011;67497;53.058;21.618;2023-04-05T07:43:30;27.17;;;12.95;;
78222;SDS011;67497;53.058;21.618;2023-04-05T07:45:31;24.42;;;11.98;;
78222;SDS011;67497;53.058;21.618;2023-04-05T07:47:32;22.83;;;12.10;;
78222;SDS011;67497;53.058;21.618;2023-04-05T07:49:35;25.55;;;12.77;;
78222;SDS011;67497;53.058;21.618;2023-04-05T07:51:37;24.38;;;12.00;;
78222;SDS011;67497;53.058;21.618;2023-04-05T07:53:37;23.60;;;11.85;;
78222;SDS011;67497;53.058;21.618;2023-04-05T07:55:38;26.05;;;12.30;;
78222;SDS011;67497;53.058;21.618;2023-04-05T07:57:38;20.52;;;11.95;;
78222;SDS011;67497;53.058;21.618;2023-04-05T07:59:39;24.08;;;13.70;;
78222;SDS011;67497;53.058;21.618;2023-04-05T08:01:39;24.00;;;12.00;;
78222;SDS011;67497;53.058;21.618;2023-04-05T08:03:40;25.27;;;12.02;;
78222;SDS011;67497;53.058;21.618;2023-04-05T08:05:40;22.02;;;11.23;;
78222;SDS011;67497;53.058;21.618;2023-04-05T08:07:41;24.35;;;11.35;;
78222;SDS011;67497;53.058;21.618;2023-04-05T08:09:41;23.52;;;11.32;;
78222;SDS011;67497;53.058;21.618;2023-04-05T08:11:42;23.73;;;11.35;;
78222;SDS011;67497;53.058;21.618;2023-04-05T08:13:43;24.90;;;11.38;;
78222;SDS011;67497;53.058;21.618;2023-04-05T08:15:45;24.35;;;13.30;;
78222;SDS011;67497;53.058;21.618;2023-04-05T08:17:46;25.92;;;14.35;;
78222;SDS011;67497;53.058;21.618;2023-04-05T08:19:46;27.58;;;14.00;;
78222;SDS011;67497;53.058;21.618;2023-04-05T08:21:48;19.83;;;11.50;;
78222;SDS011;67497;53.058;21.618;2023-04-05T08:23:49;25.60;;;12.02;;
78222;SDS011;67497;53.058;21.618;2023-04-05T08:25:49;20.10;;;10.75;;
78222;SDS011;67497;53.058;21.618;2023-04-05T08:27:50;20.85;;;10.50;;
78222;SDS011;67497;53.058;21.618;2023-04-05T08:29:50;24.67;;;11.05;;
78222;SDS011;67497;53.058;21.618;2023-04-05T08:31:51;18.80;;;10.60;;
78222;SDS011;67497;53.058;21.618;2023-04-05T08:33:51;18.92;;;9.82;;
78222;SDS011;67497;53.058;21.618;2023-04-05T08:35:52;17.83;;;10.40;;
78222;SDS011;67497;53.058;21.618;2023-04-05T08:37:52;16.02;;;8.52;;
78222;SDS011;67497;53.058;21.618;2023-04-05T08:39:53;18.05;;;9.27;;
78222;SDS011;67497;53.058;21.618;2023-04-05T08:41:56;17.23;;;10.05;;
78222;SDS011;67497;53.058;21.618;2023-04-05T08:44:10;19.05;;;8.93;;
78222;SDS011;67497;53.058;21.618;2023-04-05T08:46:15;18.38;;;10.55;;
78222;SDS011;67497;53.058;21.618;2023-04-05T08:48:18;19.10;;;8.60;;
78222;SDS011;67497;53.058;21.618;2023-04-05T08:50:19;19.00;;;8.48;;
78222;SDS011;67497;53.058;21.618;2023-04-05T08:52:21;18.23;;;9.25;;
78222;SDS011;67497;53.058;21.618;2023-04-05T08:54:21;14.38;;;7.75;;
78222;SDS011;67497;53.058;21.618;2023-04-05T08:56:25;17.25;;;9.18;;
78222;SDS011;67497;53.058;21.618;2023-04-05T08:58:31;17.52;;;9.45;;
78222;SDS011;67497;53.058;21.618;2023-04-05T09:00:34;18.52;;;9.32;;
78222;SDS011;67497;53.058;21.618;2023-04-05T09:02:35;20.20;;;10.43;;
78222;SDS011;67497;53.058;21.618;2023-04-05T09:04:37;19.05;;;7.72;;
78222;SDS011;67497;53.058;21.618;2023-04-05T09:06:43;14.27;;;7.82;;
78222;SDS011;67497;53.058;21.618;2023-04-05T09:08:45;17.95;;;8.43;;
78222;SDS011;67497;53.058;21.618;2023-04-05T09:10:47;18.92;;;7.85;;
78222;SDS011;67497;53.058;21.618;2023-04-05T09:12:50;17.55;;;8.07;;
78222;SDS011;67497;53.058;21.618;2023-04-05T09:14:52;18.45;;;9.20;;
78222;SDS011;67497;53.058;21.618;2023-04-05T09:16:53;16.00;;;7.97;;
78222;SDS011;67497;53.058;21.618;2023-04-05T09:18:53;14.20;;;7.20;;
78222;SDS011;67497;53.058;21.618;2023-04-05T09:21:06;21.58;;;8.30;;
78222;SDS011;67497;53.058;21.618;2023-04-05T09:23:07;12.73;;;6.63;;
78222;SDS011;67497;53.058;21.618;2023-04-05T09:25:07;15.40;;;7.40;;
78222;SDS011;67497;53.058;21.618;2023-04-05T09:27:12;18.05;;;7.60;;
78222;SDS011;67497;53.058;21.618;2023-04-05T09:31:33;12.20;;;7.05;;
78222;SDS011;67497;53.058;21.618;2023-04-05T09:33:35;15.85;;;7.40;;
78222;SDS011;67497;53.058;21.618;2023-04-05T09:35:38;18.40;;;7.38;;
78222;SDS011;67497;53.058;21.618;2023-04-05T09:37:46;14.25;;;7.53;;
78222;SDS011;67497;53.058;21.618;2023-04-05T09:40:00;11.73;;;6.30;;
78222;SDS011;67497;53.058;21.618;2023-04-05T09:44:04;11.98;;;6.03;;
78222;SDS011;67497;53.058;21.618;2023-04-05T09:46:05;12.02;;;6.53;;
78222;SDS011;67497;53.058;21.618;2023-04-05T09:48:06;12.07;;;6.32;;
78222;SDS011;67497;53.058;21.618;2023-04-05T09:52:21;10.40;;;6.00;;
78222;SDS011;67497;53.058;21.618;2023-04-05T09:54:25;13.43;;;5.80;;
78222;SDS011;67497;53.058;21.618;2023-04-05T09:56:35;13.98;;;6.45;;
78222;SDS011;67497;53.058;21.618;2023-04-05T09:58:36;13.15;;;6.22;;
78222;SDS011;67497;53.058;21.618;2023-04-05T10:00:37;12.35;;;5.72;;
78222;SDS011;67497;53.058;21.618;2023-04-05T10:02:38;14.10;;;7.10;;
78222;SDS011;67497;53.058;21.618;2023-04-05T10:04:39;10.18;;;5.50;;
78222;SDS011;67497;53.058;21.618;2023-04-05T10:06:41;10.07;;;5.63;;
78222;SDS011;67497;53.058;21.618;2023-04-05T10:08:42;11.93;;;6.63;;
78222;SDS011;67497;53.058;21.618;2023-04-05T10:10:46;9.85;;;5.75;;
78222;SDS011;67497;53.058;21.618;2023-04-05T10:12:49;11.52;;;5.95;;
78222;SDS011;67497;53.058;21.618;2023-04-05T10:14:50;12.18;;;7.00;;
78222;SDS011;67497;53.058;21.618;2023-04-05T10:19:28;10.27;;;5.80;;
78222;SDS011;67497;53.058;21.618;2023-04-05T10:21:35;12.35;;;5.40;;
78222;SDS011;67497;53.058;21.618;2023-04-05T10:23:41;9.50;;;5.43;;
78222;SDS011;67497;53.058;21.618;2023-04-05T10:27:53;7.53;;;5.10;;
78222;SDS011;67497;53.058;21.618;2023-04-05T10:34:50;10.60;;;4.97;;
78222;SDS011;67497;53.058;21.618;2023-04-05T10:37:00;7.72;;;4.70;;
78222;SDS011;67497;53.058;21.618;2023-04-05T10:41:20;9.27;;;4.32;;
78222;SDS011;67497;53.058;21.618;2023-04-05T10:43:22;10.18;;;4.95;;
78222;SDS011;67497;53.058;21.618;2023-04-05T10:45:24;8.02;;;4.55;;
78222;SDS011;67497;53.058;21.618;2023-04-05T10:47:30;9.82;;;4.90;;
78222;SDS011;67497;53.058;21.618;2023-04-05T10:51:33;8.15;;;5.38;;
78222;SDS011;67497;53.058;21.618;2023-04-05T10:53:33;11.38;;;5.13;;
78222;SDS011;67497;53.058;21.618;2023-04-05T10:55:36;7.53;;;4.07;;
78222;SDS011;67497;53.058;21.618;2023-04-05T10:57:38;8.75;;;4.28;;
78222;SDS011;67497;53.058;21.618;2023-04-05T10:59:40;6.70;;;4.18;;
78222;SDS011;67497;53.058;21.618;2023-04-05T11:01:42;6.78;;;4.55;;
78222;SDS011;67497;53.058;21.618;2023-04-05T11:03:49;8.50;;;4.88;;
78222;SDS011;67497;53.058;21.618;2023-04-05T11:05:51;7.85;;;4.55;;
78222;SDS011;67497;53.058;21.618;2023-04-05T11:08:34;8.25;;;4.22;;
78222;SDS011;67497;53.058;21.618;2023-04-05T11:10:41;7.68;;;3.72;;
78222;SDS011;67497;53.058;21.618;2023-04-05T11:14:52;8.88;;;4.10;;
78222;SDS011;67497;53.058;21.618;2023-04-05T11:16:53;7.97;;;4.28;;
78222;SDS011;67497;53.058;21.618;2023-04-05T11:18:58;9.73;;;4.43;;
78222;SDS011;67497;53.058;21.618;2023-04-05T11:21:05;7.85;;;4.13;;
78222;SDS011;67497;53.058;21.618;2023-04-05T11:23:07;9.38;;;4.15;;
78222;SDS011;67497;53.058;21.618;2023-04-05T11:25:08;9.10;;;4.72;;
78222;SDS011;67497;53.058;21.618;2023-04-05T11:27:28;8.07;;;4.35;;
78222;SDS011;67497;53.058;21.618;2023-04-05T11:29:45;6.45;;;3.70;;
78222;SDS011;67497;53.058;21.618;2023-04-05T11:31:58;7.65;;;4.13;;
78222;SDS011;67497;53.058;21.618;2023-04-05T11:34:05;7.22;;;3.80;;
78222;SDS011;67497;53.058;21.618;2023-04-05T11:36:09;6.97;;;4.30;;
78222;SDS011;67497;53.058;21.618;2023-04-05T11:38:10;10.23;;;4.55;;
78222;SDS011;67497;53.058;21.618;2023-04-05T11:40:28;8.05;;;4.32;;
78222;SDS011;67497;53.058;21.618;2023-04-05T11:42:30;6.65;;;4.18;;
78222;SDS011;67497;53.058;21.618;2023-04-05T11:46:44;8.73;;;4.47;;
78222;SDS011;67497;53.058;21.618;2023-04-05T11:48:48;7.78;;;4.30;;
78222;SDS011;67497;53.058;21.618;2023-04-05T11:50:49;7.90;;;4.35;;
78222;SDS011;67497;53.058;21.618;2023-04-05T11:53:06;9.68;;;4.13;;
78222;SDS011;67497;53.058;21.618;2023-04-05T11:55:08;8.88;;;4.53;;
78222;SDS011;67497;53.058;21.618;2023-04-05T11:57:11;11.15;;;4.47;;
78222;SDS011;67497;53.058;21.618;2023-04-05T11:59:13;7.45;;;3.70;;
78222;SDS011;67497;53.058;21.618;2023-04-05T12:01:13;9.23;;;4.97;;
78222;SDS011;67497;53.058;21.618;2023-04-05T12:03:15;13.23;;;4.00;;
78222;SDS011;67497;53.058;21.618;2023-04-05T12:05:16;7.75;;;3.90;;
78222;SDS011;67497;53.058;21.618;2023-04-05T12:07:17;7.80;;;4.55;;
78222;SDS011;67497;53.058;21.618;2023-04-05T12:09:18;9.20;;;4.43;;
78222;SDS011;67497;53.058;21.618;2023-04-05T12:11:23;8.30;;;4.20;;
78222;SDS011;67497;53.058;21.618;2023-04-05T12:13:24;10.70;;;4.43;;
78222;SDS011;67497;53.058;21.618;2023-04-05T12:15:26;7.65;;;3.63;;
78222;SDS011;67497;53.058;21.618;2023-04-05T12:17:39;9.10;;;4.40;;
78222;SDS011;67497;53.058;21.618;2023-04-05T12:21:42;11.20;;;4.72;;
78222;SDS011;67497;53.058;21.618;2023-04-05T12:23:43;14.60;;;4.53;;
78222;SDS011;67497;53.058;21.618;2023-04-05T12:25:47;8.90;;;4.45;;
78222;SDS011;67497;53.058;21.618;2023-04-05T12:27:48;12.43;;;4.95;;
78222;SDS011;67497;53.058;21.618;2023-04-05T12:30:08;12.10;;;6.03;;
78222;SDS011;67497;53.058;21.618;2023-04-05T12:32:10;9.45;;;4.75;;